Time;durP1;ratioP1;P1;durP2;ratioP2;P2;SDS_P1;SDS_P2;PMS_P1;PMS_P2;Temp;Humidity;BMP_temperature;BMP_pressure;BME280_temperature;BME280_humidity;BME280_pressure;Samples;Min_cycle;Max_cycle;Signal;HPM_P1;HPM_P2
2021/12/14 00:02:18;;;;;;;10.52;6.97;;;8.80;99.90;;;;;;5123954;28;20039;-89
2021/12/14 00:04:46;;;;;;;14.32;7.78;;;8.50;99.90;;;;;;5131748;28;20566;-89
2021/12/14 00:07:15;;;;;;;14.18;7.95;;;9.00;99.90;;;;;;5110562;28;20031;-87
2021/12/14 00:09:43;;;;;;;12.10;7.10;;;8.50;99.90;;;;;;5109821;28;20047;-88
2021/12/14 00:15:04;;;;;;;14.43;7.95;;;8.60;99.90;;;;;;5131532;28;20051;-89
2021/12/14 00:18:01;;;;;;;14.82;8.48;;;8.80;99.90;;;;;;5124667;28;20031;-88
2021/12/14 00:20:31;;;;;;;11.77;7.50;;;9.20;99.90;;;;;;5112828;28;20050;-89
2021/12/14 00:25:38;;;;;;;13.52;8.00;;;8.50;99.90;;;;;;5132399;27;20415;-88
2021/12/14 00:28:16;;;;;;;13.00;7.22;;;9.30;99.90;;;;;;5125025;27;20403;-89
2021/12/14 00:30:44;;;;;;;11.20;6.97;;;8.50;99.90;;;;;;5123049;27;20095;-87
2021/12/14 00:33:14;;;;;;;13.18;6.65;;;8.50;99.90;;;;;;5114256;27;20054;-88
2021/12/14 00:35:41;;;;;;;14.43;7.80;;;8.60;99.90;;;;;;5130364;27;20079;-88
2021/12/14 00:38:09;;;;;;;11.85;7.30;;;8.50;99.90;;;;;;5135174;27;20512;-86
2021/12/14 00:40:39;;;;;;;14.57;8.60;;;8.40;99.90;;;;;;5130540;27;20082;-88
2021/12/14 00:43:05;;;;;;;13.45;8.20;;;8.60;99.90;;;;;;5132418;27;20035;-89
2021/12/14 00:45:34;;;;;;;12.45;7.80;;;8.50;99.90;;;;;;5128480;27;20047;-88
2021/12/14 00:48:01;;;;;;;13.93;8.45;;;8.50;99.90;;;;;;5116895;27;20043;-81
2021/12/14 00:50:29;;;;;;;13.60;7.40;;;8.80;99.90;;;;;;5135385;27;20043;-86
2021/12/14 00:52:55;;;;;;;15.60;7.43;;;8.40;99.90;;;;;;5127915;27;20043;-86
2021/12/14 00:55:31;;;;;;;15.80;7.53;;;8.50;99.90;;;;;;5131691;27;20411;-90
2021/12/14 00:57:57;;;;;;;12.70;6.72;;;8.30;99.90;;;;;;5122970;27;20043;-88
2021/12/14 01:00:27;;;;;;;12.80;7.60;;;8.50;99.90;;;;;;5133498;27;20105;-87
2021/12/14 01:02:53;;;;;;;12.63;7.32;;;8.10;99.90;;;;;;5130460;27;20039;-88
2021/12/14 01:05:24;;;;;;;10.88;6.22;;;8.90;99.90;;;;;;5126695;27;20042;-89
2021/12/14 01:07:51;;;;;;;12.27;7.20;;;8.50;99.90;;;;;;5135095;27;20039;-88
2021/12/14 01:10:53;;;;;;;13.20;7.68;;;8.50;99.90;;;;;;5126015;27;20040;-89
2021/12/14 01:13:22;;;;;;;13.30;7.78;;;8.40;99.90;;;;;;5071893;28;20059;-90
2021/12/14 01:16:14;;;;;;;14.63;8.00;;;8.50;99.90;;;;;;5072473;28;20049;-88
2021/12/14 01:18:47;;;;;;;13.68;6.88;;;8.50;99.90;;;;;;5071463;28;20049;-88
2021/12/14 01:21:46;;;;;;;15.27;8.15;;;8.50;99.90;;;;;;5067873;28;20128;-88
2021/12/14 01:24:34;;;;;;;13.85;8.20;;;8.50;99.90;;;;;;5067056;28;20045;-88
2021/12/14 01:26:59;;;;;;;13.55;7.93;;;8.50;99.90;;;;;;5064927;28;20431;-89
2021/12/14 01:29:25;;;;;;;18.88;7.88;;;8.80;99.90;;;;;;5071576;28;20041;-87
2021/12/14 01:31:55;;;;;;;11.98;7.43;;;8.10;99.90;;;;;;5071594;28;20091;-88
2021/12/14 01:34:22;;;;;;;19.08;9.35;;;8.50;99.90;;;;;;5071590;28;20079;-88
2021/12/14 01:36:54;;;;;;;16.45;7.68;;;8.50;99.90;;;;;;5070962;28;20049;-87
2021/12/14 01:39:34;;;;;;;15.65;7.85;;;9.00;99.90;;;;;;5071448;28;20047;-88
2021/12/14 01:42:08;;;;;;;12.93;7.57;;;8.80;99.90;;;;;;5071192;28;20045;-90
2021/12/14 01:44:41;;;;;;;12.30;7.25;;;8.40;99.90;;;;;;5072484;28;20498;-87
2021/12/14 01:47:16;;;;;;;13.23;7.85;;;8.90;99.90;;;;;;5071352;28;20136;-88
2021/12/14 01:49:42;;;;;;;13.03;7.70;;;8.40;99.90;;;;;;5096433;27;20055;-88
2021/12/14 01:52:14;;;;;;;12.20;7.55;;;8.50;99.90;;;;;;5131118;27;20299;-88
2021/12/14 01:54:43;;;;;;;12.02;7.93;;;8.40;99.90;;;;;;5125384;27;20055;-88
2021/12/14 01:57:13;;;;;;;15.48;7.93;;;8.50;99.90;;;;;;5107193;27;20051;-89
2021/12/14 01:59:43;;;;;;;11.55;7.63;;;8.70;99.90;;;;;;5134322;27;20065;-89
2021/12/14 02:04:44;;;;;;;18.30;9.35;;;9.00;99.90;;;;;;5128266;27;20143;-88
2021/12/14 02:07:11;;;;;;;17.17;9.10;;;8.70;99.90;;;;;;5130757;27;20035;-87
2021/12/14 02:09:38;;;;;;;17.77;10.43;;;8.70;99.90;;;;;;5126060;27;20435;-88
2021/12/14 02:12:11;;;;;;;16.98;9.82;;;8.30;99.90;;;;;;5133881;27;20077;-86
2021/12/14 02:14:38;;;;;;;16.25;9.45;;;8.50;99.90;;;;;;5132409;27;20051;-89
2021/12/14 02:17:06;;;;;;;20.60;9.88;;;8.50;99.90;;;;;;5133813;27;20043;-88
2021/12/14 02:19:32;;;;;;;19.05;10.30;;;8.80;99.90;;;;;;5114502;27;20078;-83
2021/12/14 02:22:00;;;;;;;14.73;8.85;;;9.10;99.90;;;;;;5129858;27;20036;-83
2021/12/14 02:24:28;;;;;;;17.10;8.95;;;9.00;99.90;;;;;;5121748;27;20067;-84
2021/12/14 02:26:56;;;;;;;15.40;8.98;;;8.40;99.90;;;;;;5134062;27;20087;-86
2021/12/14 02:29:33;;;;;;;18.00;9.23;;;9.00;99.90;;;;;;5134220;27;20039;-84
2021/12/14 02:32:14;;;;;;;14.82;8.88;;;8.40;99.90;;;;;;5131672;27;21402;-84
2021/12/14 02:34:55;;;;;;;15.23;9.30;;;8.30;99.90;;;;;;5132576;27;20039;-83
2021/12/14 02:37:33;;;;;;;20.33;11.35;;;8.40;99.90;;;;;;5133693;27;20125;-85
2021/12/14 02:40:14;;;;;;;19.55;11.35;;;9.20;99.90;;;;;;5132855;27;20050;-84
2021/12/14 02:42:40;;;;;;;18.60;10.13;;;8.40;99.90;;;;;;5130989;27;20540;-83
2021/12/14 02:45:08;;;;;;;18.45;10.40;;;8.80;99.90;;;;;;5125278;27;20047;-84
2021/12/14 02:47:34;;;;;;;18.15;10.00;;;8.40;99.90;;;;;;5108907;28;20048;-82
2021/12/14 02:49:59;;;;;;;18.45;10.00;;;8.40;99.90;;;;;;5130862;27;20031;-82
2021/12/14 02:52:34;;;;;;;20.42;11.27;;;8.60;99.90;;;;;;5129137;27;20380;-82
2021/12/14 02:55:21;;;;;;;18.17;9.15;;;8.60;99.90;;;;;;5111307;27;20051;-86
2021/12/14 02:57:53;;;;;;;21.90;11.70;;;8.40;99.90;;;;;;5125305;27;20050;-85
2021/12/14 03:00:31;;;;;;;18.20;10.73;;;8.40;99.90;;;;;;5105975;27;20081;-86
2021/12/14 03:02:58;;;;;;;22.10;12.18;;;8.40;99.90;;;;;;5130938;27;20054;-85
2021/12/14 03:05:28;;;;;;;22.42;11.52;;;8.40;99.90;;;;;;5125280;27;20053;-90
2021/12/14 03:08:08;;;;;;;18.25;11.48;;;8.40;99.90;;;;;;5115084;27;20050;-89
2021/12/14 03:10:52;;;;;;;20.80;10.43;;;8.40;99.90;;;;;;5125000;27;20486;-89
2021/12/14 03:13:19;;;;;;;16.83;9.65;;;8.90;99.90;;;;;;5125671;27;20035;-82
2021/12/14 03:15:52;;;;;;;17.90;10.57;;;8.30;99.90;;;;;;5106723;27;20043;-82
2021/12/14 03:18:40;;;;;;;20.00;11.15;;;8.90;99.90;;;;;;5124338;27;20403;-87
2021/12/14 03:21:24;;;;;;;18.85;10.18;;;8.60;99.90;;;;;;5119825;27;20086;-89
2021/12/14 03:23:51;;;;;;;18.83;11.10;;;8.30;99.90;;;;;;5117928;27;20122;-89
2021/12/14 03:26:21;;;;;;;18.25;10.70;;;8.80;99.90;;;;;;5132790;27;20066;-90
2021/12/14 03:28:50;;;;;;;22.35;12.18;;;8.90;99.90;;;;;;5123935;28;20517;-89
2021/12/14 03:31:32;;;;;;;20.75;12.48;;;8.40;99.90;;;;;;5108910;28;20096;-88
2021/12/14 03:34:01;;;;;;;23.73;11.90;;;8.30;99.90;;;;;;5123081;28;20080;-88
2021/12/14 03:36:38;;;;;;;21.67;11.73;;;8.30;99.90;;;;;;5118709;28;20034;-88
2021/12/14 03:39:21;;;;;;;21.52;12.32;;;8.30;99.90;;;;;;5116805;28;20395;-89
2021/12/14 03:41:55;;;;;;;22.00;12.90;;;8.60;99.90;;;;;;5131776;28;20400;-84
2021/12/14 03:44:29;;;;;;;21.73;11.73;;;8.30;99.90;;;;;;5118932;28;20050;-86
2021/12/14 03:46:58;;;;;;;23.15;13.05;;;8.30;99.90;;;;;;5123685;28;20356;-86
2021/12/14 03:49:30;;;;;;;22.38;12.35;;;8.40;99.90;;;;;;5132634;28;20054;-87
2021/12/14 03:51:56;;;;;;;20.92;10.95;;;8.90;99.90;;;;;;5105738;28;20062;-84
2021/12/14 03:54:23;;;;;;;18.33;11.45;;;8.60;99.90;;;;;;5125053;28;20035;-89
2021/12/14 03:56:50;;;;;;;20.27;11.82;;;8.60;99.90;;;;;;5124976;28;20047;-88
2021/12/14 03:59:16;;;;;;;23.73;11.98;;;8.80;99.90;;;;;;5131568;28;20468;-88
2021/12/14 04:01:46;;;;;;;20.20;10.95;;;8.20;99.90;;;;;;5127606;27;20104;-89
2021/12/14 04:04:18;;;;;;;22.48;12.38;;;8.20;99.90;;;;;;5102612;27;20040;-87
2021/12/14 04:06:49;;;;;;;21.98;12.55;;;8.70;99.90;;;;;;5136043;27;20119;-89
2021/12/14 04:09:17;;;;;;;24.23;13.27;;;8.20;99.90;;;;;;5127741;27;20031;-87
2021/12/14 04:11:44;;;;;;;23.02;12.32;;;8.50;99.90;;;;;;5135642;27;20479;-88
2021/12/14 04:14:10;;;;;;;22.58;12.43;;;8.30;99.90;;;;;;5129086;27;20040;-89
2021/12/14 04:16:39;;;;;;;19.13;11.48;;;8.30;99.90;;;;;;5135433;27;20044;-87
2021/12/14 04:19:10;;;;;;;21.38;10.93;;;8.20;99.90;;;;;;5117321;27;20039;-88
2021/12/14 04:21:40;;;;;;;19.90;10.68;;;8.30;99.90;;;;;;5133753;27;20031;-90
2021/12/14 04:24:08;;;;;;;21.10;12.25;;;8.50;99.90;;;;;;5125368;27;20536;-89
2021/12/14 04:26:34;;;;;;;17.60;10.02;;;8.20;99.90;;;;;;5133663;27;20075;-89
2021/12/14 04:29:01;;;;;;;19.58;11.60;;;8.70;99.90;;;;;;5135489;27;20031;-87
2021/12/14 04:31:27;;;;;;;24.83;13.00;;;8.40;99.90;;;;;;5135843;27;20120;-85
2021/12/14 04:33:54;;;;;;;21.50;11.60;;;8.00;99.90;;;;;;5124904;27;20036;-88
2021/12/14 04:36:26;;;;;;;22.48;12.57;;;8.40;99.90;;;;;;5130766;27;20067;-88
2021/12/14 04:38:58;;;;;;;25.08;13.60;;;8.20;99.90;;;;;;5133088;27;20035;-89
2021/12/14 04:52:31;;;;;;;23.02;11.35;;;8.50;99.90;;;;;;5130162;27;20500;-88
2021/12/14 04:55:03;;;;;;;18.20;11.05;;;8.10;99.90;;;;;;5124665;27;20055;-86
2021/12/14 04:57:44;;;;;;;24.60;13.65;;;8.50;99.90;;;;;;5127940;27;20114;-87
2021/12/14 05:00:39;;;;;;;22.48;12.48;;;8.10;99.90;;;;;;5134591;27;20043;-89
2021/12/14 05:03:23;;;;;;;22.45;11.82;;;8.20;99.90;;;;;;5134539;27;20399;-87
2021/12/14 05:05:57;;;;;;;23.63;11.82;;;8.50;99.90;;;;;;5127964;27;20493;-89
2021/12/14 05:10:56;;;;;;;27.30;13.68;;;8.70;99.90;;;;;;5126781;27;20054;-86
2021/12/14 05:13:28;;;;;;;25.38;12.98;;;8.40;99.90;;;;;;5125189;27;20046;-88
2021/12/14 05:15:54;;;;;;;21.35;12.38;;;8.20;99.90;;;;;;5109508;27;20038;-88
2021/12/14 05:18:20;;;;;;;25.27;13.68;;;8.70;99.90;;;;;;5134560;27;20403;-89
2021/12/14 05:20:48;;;;;;;24.70;13.15;;;8.20;99.90;;;;;;5127754;27;20071;-88
2021/12/14 05:23:31;;;;;;;19.08;10.35;;;8.00;99.90;;;;;;5116608;27;20081;-88
2021/12/14 05:26:03;;;;;;;20.45;10.73;;;8.10;99.90;;;;;;5109508;27;20479;-87
2021/12/14 05:28:29;;;;;;;19.73;11.05;;;8.30;99.90;;;;;;5133461;27;20521;-89
2021/12/14 05:30:58;;;;;;;21.90;12.25;;;8.70;99.90;;;;;;5127487;27;20043;-87
2021/12/14 05:33:29;;;;;;;23.05;12.98;;;8.20;99.90;;;;;;5125706;27;20086;-85
2021/12/14 05:36:00;;;;;;;27.60;13.38;;;8.20;99.90;;;;;;5130559;27;20068;-93
2021/12/14 05:38:44;;;;;;;24.48;12.52;;;8.50;99.90;;;;;;5127041;27;20040;-85
2021/12/14 05:43:05;;;;;;;22.33;13.35;;;8.10;99.90;;;;;;5105032;28;20100;-85
2021/12/14 05:43:58;;;;;;;22.45;12.20;;;8.60;99.90;;;;;;5121149;27;20051;-82
2021/12/14 05:46:25;;;;;;;18.83;10.65;;;8.50;99.90;;;;;;5134505;27;20043;-88
2021/12/14 05:48:58;;;;;;;20.25;11.52;;;8.30;99.90;;;;;;5133926;27;20130;-87
2021/12/14 05:51:23;;;;;;;18.75;10.32;;;8.10;99.90;;;;;;5127060;27;20395;-86
2021/12/14 05:53:49;;;;;;;21.08;11.57;;;8.40;99.90;;;;;;5133581;27;20035;-87
2021/12/14 05:56:19;;;;;;;21.80;11.80;;;8.00;99.90;;;;;;5115537;27;20058;-89
2021/12/14 05:58:46;;;;;;;21.38;12.10;;;8.20;99.90;;;;;;5133855;27;20043;-87
2021/12/14 06:01:16;;;;;;;24.17;12.73;;;8.10;99.90;;;;;;5107940;27;20035;-88
2021/12/14 06:03:48;;;;;;;24.48;12.85;;;8.70;99.90;;;;;;5133102;27;20050;-85
2021/12/14 06:06:24;;;;;;;21.45;11.68;;;7.90;99.90;;;;;;5115609;27;20483;-88
2021/12/14 06:08:58;;;;;;;19.55;11.05;;;8.10;99.90;;;;;;5120789;27;20148;-88
2021/12/14 06:11:26;;;;;;;21.58;11.35;;;8.00;99.90;;;;;;5134115;27;20039;-87
2021/12/14 06:13:52;;;;;;;20.63;11.93;;;8.00;99.90;;;;;;5114999;27;20071;-87
2021/12/14 06:16:36;;;;;;;23.80;13.68;;;8.20;99.90;;;;;;5125178;27;20164;-87
2021/12/14 06:19:34;;;;;;;20.02;11.32;;;8.40;99.90;;;;;;5125289;27;20096;-88
2021/12/14 06:22:08;;;;;;;22.40;12.40;;;8.00;99.90;;;;;;5124929;27;20126;-88
2021/12/14 06:24:36;;;;;;;25.08;14.27;;;8.60;99.90;;;;;;5115243;27;20391;-86
2021/12/14 06:27:05;;;;;;;24.92;12.88;;;8.50;99.90;;;;;;5132735;27;20043;-86
2021/12/14 06:29:40;;;;;;;23.23;12.88;;;8.10;99.90;;;;;;5133774;27;20047;-88
2021/12/14 06:32:17;;;;;;;24.00;13.00;;;8.10;99.90;;;;;;5125067;27;20043;-87
2021/12/14 06:34:54;;;;;;;20.77;11.50;;;8.00;99.90;;;;;;5133168;27;20512;-85
2021/12/14 06:37:30;;;;;;;20.02;10.38;;;8.50;99.90;;;;;;5132867;27;20035;-88
2021/12/14 06:40:16;;;;;;;23.27;12.88;;;8.60;99.90;;;;;;5125236;27;20047;-84
2021/12/14 06:42:52;;;;;;;20.40;11.55;;;8.60;99.90;;;;;;5034293;28;20511;-89
2021/12/14 06:45:20;;;;;;;20.70;11.52;;;8.00;99.90;;;;;;5049504;28;20061;-88
2021/12/14 06:47:49;;;;;;;20.05;11.30;;;8.10;99.90;;;;;;5042943;28;20559;-87
2021/12/14 06:50:21;;;;;;;26.00;12.90;;;7.40;99.90;;;;;;5047828;28;20044;-84
2021/12/14 06:53:04;;;;;;;22.65;12.13;;;8.00;99.90;;;;;;5049826;28;20033;-85
2021/12/14 06:55:32;;;;;;;20.70;11.52;;;8.00;99.90;;;;;;5034033;28;20065;-82
2021/12/14 06:58:13;;;;;;;25.73;13.52;;;8.10;99.90;;;;;;5038406;28;20045;-85
2021/12/14 07:00:49;;;;;;;24.88;13.07;;;8.00;99.90;;;;;;5031630;28;20140;-86
2021/12/14 07:03:15;;;;;;;21.73;11.00;;;8.00;99.90;;;;;;5030439;28;20041;-87
2021/12/14 07:05:50;;;;;;;22.85;12.27;;;8.00;99.90;;;;;;5049799;28;20033;-85
2021/12/14 07:08:26;;;;;;;21.75;12.23;;;8.70;99.90;;;;;;5048910;28;20509;-87
2021/12/14 07:10:53;;;;;;;22.38;12.32;;;8.50;99.90;;;;;;5022495;28;20088;-89
2021/12/14 07:13:28;;;;;;;21.88;11.10;;;8.00;99.90;;;;;;5029849;28;20497;-85
2021/12/14 07:15:54;;;;;;;23.50;13.07;;;8.50;99.90;;;;;;5027313;28;20045;-88
2021/12/14 07:18:28;;;;;;;26.63;13.85;;;8.10;99.90;;;;;;5028024;28;20104;-85
2021/12/14 07:20:55;;;;;;;24.38;11.98;;;8.10;99.90;;;;;;5102527;28;20047;-87
2021/12/14 07:23:35;;;;;;;22.83;11.30;;;8.60;99.90;;;;;;5111795;28;20078;-85
2021/12/14 07:26:10;;;;;;;24.00;12.73;;;8.60;99.90;;;;;;5111714;28;20039;-86
2021/12/14 07:28:39;;;;;;;20.27;11.05;;;8.00;99.90;;;;;;5111598;28;20031;-86
2021/12/14 07:31:25;;;;;;;26.63;14.32;;;8.00;99.90;;;;;;5112145;28;20036;-86
2021/12/14 07:33:55;;;;;;;26.67;14.07;;;8.10;99.90;;;;;;5096254;28;20074;-86
2021/12/14 07:36:25;;;;;;;25.20;12.68;;;8.50;99.90;;;;;;5113977;28;20050;-86
2021/12/14 07:38:58;;;;;;;23.02;12.10;;;8.20;99.90;;;;;;5104947;28;20110;-86
2021/12/14 07:41:33;;;;;;;20.88;11.10;;;8.00;99.90;;;;;;5112977;28;20055;-86
2021/12/14 07:44:27;;;;;;;29.20;13.80;;;8.00;99.90;;;;;;5101135;28;20039;-86
2021/12/14 07:47:03;;;;;;;24.95;13.60;;;8.00;99.90;;;;;;5108079;28;20036;-86
2021/12/14 07:49:30;;;;;;;23.10;12.32;;;8.20;99.90;;;;;;5096011;28;20047;-85
2021/12/14 07:51:58;;;;;;;24.83;12.18;;;8.50;99.90;;;;;;5116032;28;20049;-88
2021/12/14 07:54:30;;;;;;;24.52;13.75;;;8.30;99.90;;;;;;5116261;28;20047;-92
2021/12/14 07:57:00;;;;;;;22.33;12.52;;;8.00;99.90;;;;;;5107057;28;20137;-85
2021/12/14 07:59:28;;;;;;;22.27;11.35;;;8.00;99.90;;;;;;5107899;28;20089;-82
2021/12/14 08:02:18;;;;;;;29.17;14.70;;;8.70;99.90;;;;;;5115505;28;20475;-86
2021/12/14 08:04:57;;;;;;;25.08;12.85;;;8.00;99.90;;;;;;5105787;28;20404;-86
2021/12/14 08:07:27;;;;;;;27.45;14.20;;;8.00;99.90;;;;;;5109556;28;20082;-86
2021/12/14 08:09:58;;;;;;;24.00;13.05;;;8.00;99.90;;;;;;5113942;28;20094;-85
2021/12/14 08:12:37;;;;;;;23.88;12.65;;;8.40;99.90;;;;;;5115595;28;20365;-86
2021/12/14 08:15:11;;;;;;;24.02;11.93;;;8.00;99.90;;;;;;5114695;28;20096;-86
2021/12/14 08:17:38;;;;;;;23.58;12.50;;;8.30;99.90;;;;;;5114354;28;20404;-85
2021/12/14 08:20:11;;;;;;;24.15;12.88;;;8.00;99.90;;;;;;5109727;28;20028;-84
2021/12/14 08:22:40;;;;;;;26.63;13.65;;;8.30;99.90;;;;;;5102177;28;20491;-87
2021/12/14 08:25:09;;;;;;;20.23;11.05;;;8.70;99.90;;;;;;5107811;28;20119;-85
2021/12/14 08:27:35;;;;;;;27.02;14.70;;;8.10;99.90;;;;;;5107547;28;20047;-85
2021/12/14 08:30:06;;;;;;;25.83;13.80;;;8.10;99.90;;;;;;5114185;28;20035;-84
2021/12/14 08:32:36;;;;;;;23.17;12.45;;;8.10;99.90;;;;;;5112993;28;20047;-86
2021/12/14 08:35:06;;;;;;;20.23;10.25;;;8.10;99.90;;;;;;5110079;28;20043;-86
2021/12/14 08:37:50;;;;;;;22.20;10.73;;;8.10;99.90;;;;;;5106119;28;20048;-87
2021/12/14 08:40:26;;;;;;;23.83;13.10;;;8.10;99.90;;;;;;5080153;28;20051;-85
2021/12/14 08:43:12;;;;;;;27.63;14.30;;;8.10;99.90;;;;;;5100610;28;20131;-86
2021/12/14 08:45:48;;;;;;;26.92;12.25;;;8.60;99.90;;;;;;5112705;28;20040;-82
2021/12/14 08:48:19;;;;;;;27.35;13.70;;;8.10;99.90;;;;;;5110716;28;20082;-85
2021/12/14 08:51:01;;;;;;;26.80;13.13;;;8.10;99.90;;;;;;5106688;28;20039;-85
2021/12/14 08:53:35;;;;;;;25.45;13.15;;;8.10;99.90;;;;;;5106153;28;20044;-84
2021/12/14 08:56:06;;;;;;;29.95;14.50;;;8.30;99.90;;;;;;5110012;28;20404;-84
2021/12/14 08:58:32;;;;;;;21.77;12.45;;;8.20;99.90;;;;;;5104080;28;20039;-84
2021/12/14 09:01:08;;;;;;;26.75;13.75;;;8.40;99.90;;;;;;5114360;28;20042;-84
2021/12/14 09:03:40;;;;;;;30.40;15.05;;;8.80;99.90;;;;;;5105935;28;20040;-82
2021/12/14 09:06:15;;;;;;;27.65;14.10;;;8.20;99.90;;;;;;5108437;28;20048;-85
2021/12/14 09:08:44;;;;;;;25.90;14.38;;;8.60;99.90;;;;;;5111534;28;20042;-84
2021/12/14 09:11:12;;;;;;;32.40;16.00;;;8.90;99.90;;;;;;5108646;28;20487;-85
2021/12/14 09:13:39;;;;;;;26.98;14.50;;;8.20;99.90;;;;;;5113847;28;20044;-84
2021/12/14 09:16:17;;;;;;;29.10;14.35;;;8.30;99.90;;;;;;5110431;28;20040;-85
2021/12/14 09:18:49;;;;;;;32.00;16.25;;;8.20;99.90;;;;;;5110854;28;20043;-83
2021/12/14 09:21:20;;;;;;;27.05;14.07;;;8.30;99.90;;;;;;5108654;28;20035;-84
2021/12/14 09:23:49;;;;;;;29.58;14.23;;;8.60;99.90;;;;;;5112251;28;20054;-83
2021/12/14 09:26:21;;;;;;;27.35;14.55;;;8.30;99.90;;;;;;5111465;28;20036;-84
2021/12/14 09:28:48;;;;;;;28.63;15.13;;;8.30;99.90;;;;;;5113709;28;20159;-84
2021/12/14 09:31:21;;;;;;;26.35;13.13;;;8.30;99.90;;;;;;5108029;28;20483;-87
2021/12/14 09:33:49;;;;;;;26.25;12.15;;;8.30;99.90;;;;;;5111887;28;20135;-85
2021/12/14 09:36:15;;;;;;;28.45;15.13;;;8.60;99.90;;;;;;5113682;28;20032;-85
2021/12/14 09:38:55;;;;;;;23.27;12.60;;;8.40;99.90;;;;;;5113594;28;20046;-82
2021/12/14 09:41:24;;;;;;;22.48;10.90;;;8.40;99.90;;;;;;5106648;28;20044;-84
2021/12/14 09:43:51;;;;;;;24.92;13.30;;;8.40;99.90;;;;;;5112054;28;20051;-86
2021/12/14 09:46:18;;;;;;;24.50;12.05;;;8.40;99.90;;;;;;5113728;28;20050;-86
2021/12/14 09:48:49;;;;;;;30.73;15.00;;;8.60;99.90;;;;;;5103650;28;20036;-85
2021/12/14 09:51:27;;;;;;;28.38;14.05;;;8.40;99.90;;;;;;5105753;28;20044;-81
2021/12/14 09:53:55;;;;;;;31.38;14.80;;;8.40;99.90;;;;;;5105096;28;20051;-85
2021/12/14 09:56:25;;;;;;;27.63;13.88;;;8.50;99.90;;;;;;5110334;28;20059;-82
2021/12/14 09:58:59;;;;;;;28.70;15.15;;;8.40;99.90;;;;;;5103794;28;20431;-84
2021/12/14 10:01:37;;;;;;;27.73;13.25;;;9.10;99.90;;;;;;5113513;28;20075;-84
2021/12/14 10:04:08;;;;;;;30.38;14.80;;;8.40;99.90;;;;;;5099846;28;20708;-85
2021/12/14 10:06:34;;;;;;;30.10;15.07;;;8.50;99.90;;;;;;5106803;28;20075;-85
2021/12/14 10:09:09;;;;;;;26.98;13.43;;;9.10;99.90;;;;;;5094430;28;20101;-84
2021/12/14 10:11:59;;;;;;;25.65;13.23;;;8.50;99.90;;;;;;5112117;28;20084;-83
2021/12/14 10:14:33;;;;;;;26.98;14.18;;;8.50;99.90;;;;;;5099156;28;20463;-84
2021/12/14 10:17:00;;;;;;;27.35;13.18;;;9.20;99.90;;;;;;5110238;28;20392;-85
2021/12/14 10:19:29;;;;;;;24.92;11.75;;;8.50;99.90;;;;;;5105560;28;20100;-83
2021/12/14 10:22:04;;;;;;;24.25;12.55;;;8.60;99.90;;;;;;5112739;28;20043;-84
2021/12/14 10:24:31;;;;;;;26.35;14.73;;;8.50;99.90;;;;;;5112828;28;20040;-84
2021/12/14 10:27:03;;;;;;;24.63;12.63;;;8.60;99.90;;;;;;5111432;28;20043;-81
2021/12/14 10:29:29;;;;;;;22.48;11.02;;;8.60;99.90;;;;;;5112845;28;20044;-84
2021/12/14 10:32:20;;;;;;;19.23;10.43;;;8.60;99.90;;;;;;5104341;28;20518;-82
2021/12/14 10:34:53;;;;;;;32.42;15.88;;;8.60;99.90;;;;;;5110864;28;20472;-90
2021/12/14 10:37:25;;;;;;;27.60;13.93;;;8.60;99.90;;;;;;5100657;28;20148;-83
2021/12/14 10:45:28;;;;;;;25.13;12.57;;;8.70;99.90;;;;;;5042706;28;20517;-82
2021/12/14 10:47:55;;;;;;;26.25;13.32;;;8.70;99.90;;;;;;5050170;28;20128;-84
2021/12/14 10:50:25;;;;;;;28.85;13.50;;;8.70;99.90;;;;;;5050037;28;20115;-85
2021/12/14 10:52:51;;;;;;;29.48;13.52;;;8.70;99.90;;;;;;5050415;28;20049;-85
2021/12/14 10:55:22;;;;;;;26.85;12.15;;;8.80;99.90;;;;;;5049970;28;20647;-84
2021/12/14 10:57:48;;;;;;;25.27;12.07;;;8.70;99.90;;;;;;5045643;28;20427;-79
2021/12/14 11:00:31;;;;;;;29.63;13.73;;;9.10;99.90;;;;;;5047248;28;20045;-80
2021/12/14 11:03:11;;;;;;;25.63;13.60;;;8.70;99.90;;;;;;5046722;28;20061;-80
2021/12/14 11:05:38;;;;;;;29.88;15.02;;;8.80;99.90;;;;;;5049482;28;20437;-80
2021/12/14 11:08:17;;;;;;;26.48;13.30;;;8.80;99.90;;;;;;5048761;28;20052;-79
2021/12/14 11:10:43;;;;;;;24.17;11.90;;;8.80;99.90;;;;;;5049672;28;20143;-80
2021/12/14 11:13:11;;;;;;;21.15;12.20;;;9.30;99.90;;;;;;5048622;28;20112;-81
2021/12/14 11:15:52;;;;;;;23.25;12.35;;;8.80;99.90;;;;;;5050078;28;20064;-79
2021/12/14 11:18:26;;;;;;;23.25;12.02;;;8.70;99.90;;;;;;5049601;28;20045;-80
2021/12/14 11:21:16;;;;;;;26.58;12.63;;;9.00;99.90;;;;;;5048326;28;20563;-79
2021/12/14 11:23:48;;;;;;;26.58;12.80;;;9.30;99.90;;;;;;5104281;28;20507;-79
2021/12/14 11:26:27;;;;;;;23.48;11.43;;;8.90;99.90;;;;;;5109717;28;20069;-83
2021/12/14 11:29:00;;;;;;;21.35;10.77;;;8.80;99.90;;;;;;5107634;28;20594;-81
2021/12/14 11:31:37;;;;;;;27.60;11.32;;;8.80;99.90;;;;;;5096499;28;20097;-80
2021/12/14 11:34:16;;;;;;;21.52;10.13;;;8.80;99.90;;;;;;5086339;28;20088;-81
2021/12/14 11:36:51;;;;;;;22.88;11.02;;;9.20;99.90;;;;;;5103781;28;20051;-82
2021/12/14 11:39:28;;;;;;;25.85;13.05;;;8.80;99.90;;;;;;5109705;28;20479;-80
2021/12/14 11:42:00;;;;;;;24.98;12.70;;;8.90;99.90;;;;;;5104927;28;20036;-83
2021/12/14 11:44:45;;;;;;;20.85;10.90;;;8.90;99.90;;;;;;5105260;28;20563;-84
2021/12/14 11:50:17;;;;;;;18.95;10.43;;;8.90;99.90;;;;;;5103853;28;20055;-83
2021/12/14 11:52:51;;;;;;;20.33;10.20;;;8.90;99.90;;;;;;5109351;28;20094;-84
2021/12/14 11:55:33;;;;;;;18.35;9.35;;;8.90;99.90;;;;;;5100198;28;20060;-81
2021/12/14 11:58:33;;;;;;;21.90;11.50;;;9.40;99.90;;;;;;5087247;28;20075;-86
2021/12/14 12:01:18;;;;;;;18.27;9.65;;;9.00;99.90;;;;;;5090165;28;20036;-82
2021/12/14 12:03:55;;;;;;;18.10;7.65;;;8.90;99.90;;;;;;5087664;28;20055;-81
2021/12/14 12:09:35;;;;;;;18.58;8.88;;;9.30;99.90;;;;;;5083123;28;20059;-81
2021/12/14 12:12:03;;;;;;;;;;;9.00;99.90;;;;;;5091671;28;20032;-79
2021/12/14 12:14:48;;;;;;;15.38;7.45;;;9.00;99.90;;;;;;5091243;28;20405;-80
2021/12/14 12:17:34;;;;;;;13.57;7.00;;;9.20;99.90;;;;;;5075902;28;20040;-80
2021/12/14 12:20:26;;;;;;;11.77;6.10;;;9.00;99.90;;;;;;5086508;28;20115;-79
2021/12/14 12:23:15;;;;;;;12.18;6.07;;;9.00;99.90;;;;;;5095005;28;20131;-79
2021/12/14 12:25:45;;;;;;;12.50;6.25;;;9.00;99.90;;;;;;5095248;28;20047;-80
2021/12/14 12:28:24;;;;;;;13.07;6.93;;;9.10;99.90;;;;;;5094205;28;20146;-79
2021/12/14 12:30:51;;;;;;;10.07;5.28;;;9.00;99.90;;;;;;5087520;28;20392;-80
2021/12/14 12:33:22;;;;;;;13.68;7.85;;;9.00;99.90;;;;;;5092527;28;20041;-80
2021/12/14 12:36:00;;;;;;;17.17;8.90;;;9.00;99.90;;;;;;5082160;28;20045;-85
2021/12/14 12:38:37;;;;;;;14.10;8.57;;;9.10;99.90;;;;;;5081008;28;20048;-81
2021/12/14 12:41:32;;;;;;;17.38;8.63;;;9.10;99.90;;;;;;5085781;28;20088;-85
2021/12/14 12:44:12;;;;;;;12.15;6.40;;;9.20;99.90;;;;;;5087095;28;20067;-83
2021/12/14 12:47:00;;;;;;;12.20;6.43;;;9.40;99.90;;;;;;5079725;28;20044;-81
2021/12/14 12:49:34;;;;;;;12.65;6.35;;;9.10;99.90;;;;;;5078579;28;20047;-81
2021/12/14 12:52:12;;;;;;;11.48;6.18;;;9.20;99.90;;;;;;5084582;28;20044;-84
2021/12/14 12:54:46;;;;;;;10.15;5.53;;;9.20;99.90;;;;;;5088023;28;20411;-83
2021/12/14 12:57:37;;;;;;;11.63;6.70;;;9.20;99.90;;;;;;5113215;27;20398;-82
2021/12/14 13:00:24;;;;;;;10.82;5.63;;;9.20;99.90;;;;;;5113165;27;20047;-80
2021/12/14 13:03:13;;;;;;;10.45;5.28;;;9.20;99.90;;;;;;5103567;27;20420;-83
2021/12/14 13:05:50;;;;;;;6.72;3.90;;;9.20;99.90;;;;;;5101959;27;20118;-82
2021/12/14 13:08:16;;;;;;;8.05;3.40;;;9.20;99.90;;;;;;5115693;27;20035;-81
2021/12/14 13:11:00;;;;;;;5.63;3.05;;;9.20;99.90;;;;;;5112044;28;20387;-81
2021/12/14 13:13:45;;;;;;;6.30;3.10;;;9.20;99.90;;;;;;5115961;27;20077;-83
2021/12/14 13:16:20;;;;;;;7.20;3.60;;;9.20;99.90;;;;;;5134404;27;20078;-81
2021/12/14 13:18:50;;;;;;;6.77;3.47;;;9.60;99.90;;;;;;5134355;27;20031;-82
2021/12/14 13:21:27;;;;;;;6.93;2.95;;;9.20;99.90;;;;;;5124691;27;20144;-83
2021/12/14 13:24:13;;;;;;;7.57;3.60;;;9.20;99.90;;;;;;5105796;28;20043;-86
2021/12/14 13:26:39;;;;;;;7.95;4.28;;;9.20;99.90;;;;;;5131029;27;20035;-85
2021/12/14 13:29:16;;;;;;;8.30;4.38;;;9.40;99.90;;;;;;5115935;27;20039;-86
2021/12/14 13:32:02;;;;;;;7.70;4.30;;;9.20;99.90;;;;;;5133708;27;20047;-82
2021/12/14 13:34:36;;;;;;;7.75;3.53;;;9.60;99.90;;;;;;5033536;28;20059;-82
2021/12/14 13:37:02;;;;;;;8.20;4.50;;;9.20;99.90;;;;;;5050551;28;20516;-81
2021/12/14 13:39:29;;;;;;;8.55;3.63;;;9.20;99.90;;;;;;5050397;28;20053;-82
2021/12/14 13:42:26;;;;;;;7.20;3.88;;;9.20;99.90;;;;;;5050806;28;20162;-85
2021/12/14 13:44:53;;;;;;;8.27;3.78;;;9.20;99.90;;;;;;5033524;28;20048;-82
2021/12/14 13:47:22;;;;;;;10.15;4.97;;;9.20;99.90;;;;;;5050448;28;20086;-82